Time;durP1;ratioP1;P1;durP2;ratioP2;P2;SDS_P1;SDS_P2;PMS_P1;PMS_P2;Temp;Humidity;BMP_temperature;BMP_pressure;BME280_temperature;BME280_humidity;BME280_pressure;Samples;Min_cycle;Max_cycle;Signal;HPM_P1;HPM_P2
2023/01/10 00:01:55;;;;;;;;;;;3.20;88.20;;;-151.14;100.00;62537.16;5029818;28;19922;-81
2023/01/10 00:04:25;;;;;;;;;;;3.20;88.30;;;-151.14;100.00;62537.16;5012843;28;19945;-81
2023/01/10 00:06:53;;;;;;;;;;;3.20;88.20;;;-151.14;100.00;62537.16;5029697;28;19922;-81
2023/01/10 00:09:21;;;;;;;;;;;3.20;88.10;;;-151.14;100.00;62537.16;5029986;28;19921;-81
2023/01/10 00:14:35;;;;;;;;;;;3.20;88.10;;;-151.14;100.00;62537.16;5029383;28;20094;-81
2023/01/10 00:17:03;;;;;;;;;;;3.20;88.10;;;-151.14;100.00;62537.16;5012961;28;19928;-81
2023/01/10 00:19:31;;;;;;;;;;;3.20;88.10;;;1.85;100.00;62537.16;4996913;28;20217;-81
2023/01/10 00:22:12;;;;;;;;;;;3.20;88.00;;;-151.14;100.00;62537.16;5012998;28;20208;-81
2023/01/10 00:24:41;;;;;;;;;;;3.20;88.00;;;-151.14;100.00;62537.16;5012510;28;19922;-81
2023/01/10 00:27:15;;;;;;;;;;;3.20;88.00;;;-151.14;100.00;62537.16;4996601;28;19921;-81
2023/01/10 00:29:44;;;;;;;;;;;3.20;87.80;;;18.10;100.00;62537.16;5013029;28;19921;-81
2023/01/10 00:32:12;;;;;;;;;;;3.20;87.80;;;-151.14;100.00;62537.16;5013103;28;19928;-81
2023/01/10 00:34:39;;;;;;;;;;;3.20;87.90;;;-151.14;100.00;62537.16;5012351;28;19922;-81
2023/01/10 00:37:07;;;;;;;;;;;3.20;87.80;;;-151.14;100.00;62537.16;5012856;28;20342;-81
2023/01/10 00:39:35;;;;;;;;;;;3.20;87.80;;;-151.14;100.00;62537.16;5012803;28;19943;-81
2023/01/10 00:44:51;;;;;;;;;;;3.20;87.90;;;-151.14;100.00;62537.16;5008975;28;19928;-81
2023/01/10 00:47:19;;;;;;;;;;;3.20;87.90;;;-151.14;100.00;62537.16;4992904;28;19922;-81
2023/01/10 00:49:47;;;;;;;;;;;3.20;88.00;;;-151.14;100.00;62537.16;4977001;28;19928;-81
2023/01/10 00:52:15;;;;;;;;;;;3.20;87.90;;;-151.14;100.00;62537.16;4992957;28;20112;-81
2023/01/10 00:54:42;;;;;;;;;;;3.20;87.90;;;-151.14;100.00;62537.16;5008866;28;20213;-81
2023/01/10 00:57:10;;;;;;;;;;;3.20;87.90;;;-151.14;100.00;62537.16;4992821;28;19922;-81
2023/01/10 00:59:38;;;;;;;;;;;3.20;87.80;;;-151.14;100.00;62537.16;4994214;28;19921;-81
2023/01/10 01:02:08;;;;;;;;;;;3.20;87.90;;;-151.14;100.00;62537.16;4992471;28;19926;-81
2023/01/10 01:04:36;;;;;;;;;;;3.20;87.90;;;-151.14;100.00;62537.16;4992411;28;19922;-81
2023/01/10 01:07:04;;;;;;;;;;;3.20;87.90;;;18.10;100.00;62537.16;4992584;28;19922;-81
2023/01/10 01:09:32;;;;;;;;;;;3.20;87.90;;;-151.14;100.00;62537.16;4976725;28;20234;-81
2023/01/10 01:11:59;;;;;;;;;;;3.20;88.00;;;-151.14;100.00;62537.16;4992510;28;19928;-81
2023/01/10 01:14:27;;;;;;;;;;;3.20;87.90;;;-151.14;100.00;62537.16;4992487;28;19922;-82
2023/01/10 01:16:56;;;;;;;;;;;3.20;88.00;;;-151.14;100.00;62537.16;4976271;28;20111;-81
2023/01/10 01:19:26;;;;;;;;;;;3.20;87.90;;;-151.14;100.00;62537.16;4976454;28;20121;-81
2023/01/10 01:21:54;;;;;;;;;;;3.20;87.90;;;-151.14;100.00;62537.16;4992502;28;20098;-81
2023/01/10 01:24:23;;;;;;;;;;;3.20;88.00;;;-151.14;100.00;62537.16;4992122;28;19929;-81
2023/01/10 01:26:51;;;;;;;;;;;3.20;88.80;;;-151.14;100.00;62537.16;4992381;28;19928;-81
2023/01/10 01:29:19;;;;;;;;;;;3.20;88.00;;;18.10;100.00;62537.16;4992628;28;19936;-81
2023/01/10 01:31:47;;;;;;;;;;;3.20;88.10;;;-151.14;100.00;62537.16;4992440;28;20205;-81
2023/01/10 01:34:15;;;;;;;;;;;3.20;88.10;;;-151.14;100.00;62537.16;4991889;28;20361;-81
2023/01/10 01:36:44;;;;;;;;;;;3.20;88.00;;;-151.14;100.00;62537.16;4992443;28;19928;-81
2023/01/10 01:39:12;;;;;;;;;;;3.20;88.10;;;-151.14;100.00;62537.16;5008791;28;20232;-82
2023/01/10 01:41:59;;;;;;;;;;;3.20;88.10;;;-151.14;100.00;62537.16;4992220;28;19922;-81
2023/01/10 01:44:30;;;;;;;;;;;3.20;88.10;;;-151.14;100.00;62537.16;4991793;28;20247;-81
2023/01/10 01:47:01;;;;;;;;;;;3.20;88.00;;;-151.14;100.00;62537.16;4993289;28;19928;-81
2023/01/10 01:49:29;;;;;;;;;;;3.20;88.10;;;-151.14;100.00;62537.16;4992325;28;19922;-82
2023/01/10 01:52:00;;;;;;;;;;;3.20;88.10;;;-151.14;100.00;62537.16;4992082;28;19922;-81
2023/01/10 01:54:28;;;;;;;;;;;3.20;88.00;;;-151.14;100.00;62537.16;4991645;28;19928;-82
2023/01/10 01:56:59;;;;;;;;;;;3.20;88.10;;;-151.14;100.00;62537.16;4975871;28;20124;-82
2023/01/10 01:59:28;;;;;;;;;;;3.20;88.10;;;-151.14;100.00;62537.16;4991960;28;19944;-82
2023/01/10 02:01:57;;;;;;;;;;;3.20;88.10;;;-151.14;100.00;62537.16;4991991;28;20121;-81
2023/01/10 02:04:28;;;;;;;;;;;3.20;88.00;;;-151.14;100.00;62537.16;4974992;28;19943;-82
2023/01/10 02:06:56;;;;;;;;;;;3.20;88.10;;;1.82;100.00;62537.16;4991719;28;20258;-82
2023/01/10 02:09:28;;;;;;;;;;;3.20;88.10;;;1.82;100.00;62537.16;4975626;28;20213;-81
2023/01/10 02:11:55;;;;;;;;;;;3.20;88.10;;;-151.14;100.00;62537.16;4991742;28;19921;-81
2023/01/10 02:14:24;;;;;;;;;;;3.20;88.10;;;1.81;100.00;62537.16;4990484;28;19921;-81
2023/01/10 02:16:52;;;;;;;;;;;3.20;88.10;;;-151.14;100.00;62537.16;4991694;28;19922;-81
2023/01/10 02:19:24;;;;;;;;;;;3.20;88.10;;;-151.14;100.00;62537.16;5008101;28;19922;-81
2023/01/10 02:22:28;;;;;;;;;;;3.20;88.10;;;1.81;100.00;62537.16;4975545;28;19922;-81
2023/01/10 02:25:44;;;;;;;;;;;3.20;88.10;;;-151.14;100.00;62537.16;4975129;28;20217;-82
2023/01/10 02:28:36;;;;;;;;;;;3.20;88.10;;;1.82;100.00;62537.16;4970222;28;19922;-82
2023/01/10 02:31:19;;;;;;;;;;;3.20;88.10;;;1.81;100.00;62537.16;4944559;28;19922;-81
2023/01/10 02:33:50;;;;;;;;;;;3.20;88.10;;;-151.14;100.00;62537.16;4990943;28;19922;-82
2023/01/10 02:36:24;;;;;;;;;;;3.20;88.10;;;-151.14;100.00;62537.16;4991492;28;19921;-81
2023/01/10 02:38:57;;;;;;;;;;;3.20;88.10;;;-151.14;100.00;62537.16;4991424;28;19922;-81
2023/01/10 02:41:28;;;;;;;;;;;3.20;88.10;;;-151.14;100.00;62537.16;4991364;28;19928;-81
2023/01/10 02:43:58;;;;;;;;;;;3.20;88.10;;;1.82;100.00;62537.16;4990960;28;19928;-81
2023/01/10 02:46:28;;;;;;;;;;;3.20;88.00;;;-151.14;100.00;62537.16;4975269;28;19922;-82
2023/01/10 02:48:57;;;;;;;;;;;3.20;88.00;;;1.80;100.00;62537.16;4991245;28;19922;-81
2023/01/10 02:51:27;;;;;;;;;;;3.20;88.10;;;-151.14;100.00;62537.16;4992544;28;19937;-82
2023/01/10 02:53:57;;;;;;;;;;;3.20;88.00;;;-151.14;100.00;62537.16;4991915;28;19985;-81
2023/01/10 02:56:56;;;;;;;;;;;3.20;88.10;;;-151.14;100.00;62537.16;5007429;28;19922;-82
2023/01/10 02:59:43;;;;;;;;;;;3.20;88.00;;;-151.14;100.00;62537.16;4991148;28;19922;-81
2023/01/10 03:02:14;;;;;;;;;;;3.20;88.00;;;1.80;100.00;62537.16;4977689;28;19928;-82
2023/01/10 03:04:47;;;;;;;;;;;3.10;88.00;;;-151.14;100.00;62537.16;4989620;28;19921;-81
2023/01/10 03:07:18;;;;;;;;;;;3.20;87.90;;;1.80;100.00;62537.16;4990183;28;19929;-82
2023/01/10 03:09:50;;;;;;;;;;;3.20;87.90;;;1.81;100.00;62537.16;4990970;28;19929;-82
2023/01/10 03:12:21;;;;;;;;;;;3.20;88.00;;;1.81;100.00;62537.16;4990892;28;19922;-82
2023/01/10 03:14:49;;;;;;;;;;;3.20;87.90;;;1.80;100.00;62537.16;4990335;28;19922;-81
2023/01/10 03:17:17;;;;;;;;;;;3.20;87.80;;;-151.14;100.00;62537.16;4990965;28;19928;-81
2023/01/10 03:19:47;;;;;;;;;;;3.20;87.80;;;-151.14;100.00;62537.16;4990944;28;19928;-82
2023/01/10 03:22:15;;;;;;;;;;;3.10;87.80;;;-151.14;100.00;62537.16;5007145;28;19922;-81
2023/01/10 03:24:44;;;;;;;;;;;3.20;87.80;;;1.83;100.00;62537.16;4990369;28;19928;-82
2023/01/10 03:27:14;;;;;;;;;;;3.20;87.80;;;-151.14;100.00;62537.16;4993639;28;19922;-82
2023/01/10 03:29:44;;;;;;;;;;;3.20;87.80;;;-151.14;100.00;62537.16;4994304;28;20236;-81
2023/01/10 03:32:12;;;;;;;;;;;3.10;87.80;;;-151.14;100.00;62537.16;4994371;28;19928;-81
2023/01/10 03:34:40;;;;;;;;;;;3.20;87.90;;;-151.14;100.00;62537.16;4993470;28;19922;-81
2023/01/10 03:37:13;;;;;;;;;;;3.20;87.80;;;-151.14;100.00;62537.16;5010559;28;19928;-82
2023/01/10 03:39:44;;;;;;;;;;;3.10;87.80;;;1.80;100.00;62537.16;4994100;28;19922;-81
2023/01/10 03:42:15;;;;;;;;;;;3.10;87.80;;;1.78;100.00;62537.16;4994211;28;19922;-81
2023/01/10 03:44:47;;;;;;;;;;;3.10;87.90;;;-151.14;100.00;62537.16;4993604;28;19922;-81
2023/01/10 03:47:19;;;;;;;;;;;3.10;87.80;;;1.78;100.00;62537.16;4993928;28;19928;-82
2023/01/10 03:49:48;;;;;;;;;;;3.10;87.80;;;1.78;100.00;62537.16;4993913;28;20125;-81
2023/01/10 03:52:18;;;;;;;;;;;3.10;87.90;;;1.78;100.00;62537.16;4977887;28;19922;-82
2023/01/10 03:54:46;;;;;;;;;;;3.10;87.80;;;1.78;100.00;62537.16;4993454;28;19922;-81
2023/01/10 03:57:18;;;;;;;;;;;3.10;87.90;;;-151.14;100.00;62537.16;4993826;28;19922;-81
2023/01/10 03:59:46;;;;;;;;;;;3.10;87.90;;;1.78;100.00;62537.16;4993810;28;19922;-81
2023/01/10 04:02:14;;;;;;;;;;;3.10;87.90;;;-151.14;100.00;62537.16;4993879;28;20210;-81
2023/01/10 04:04:42;;;;;;;;;;;3.10;88.00;;;-151.14;100.00;62537.16;4977037;28;19944;-81
2023/01/10 04:07:10;;;;;;;;;;;3.10;88.00;;;-151.14;100.00;62537.16;4993560;28;19957;-81
2023/01/10 04:09:39;;;;;;;;;;;3.10;88.00;;;1.79;100.00;62537.16;4993547;28;20307;-81
2023/01/10 04:12:07;;;;;;;;;;;3.10;87.90;;;-151.14;100.00;62537.16;4993670;28;19929;-81
2023/01/10 04:14:35;;;;;;;;;;;3.10;88.80;;;-151.14;100.00;62537.16;4992916;28;19921;-82
2023/01/10 04:17:03;;;;;;;;;;;3.10;88.00;;;-151.14;100.00;62537.16;4993493;28;19928;-81
2023/01/10 04:19:31;;;;;;;;;;;3.10;87.90;;;-151.14;100.00;62537.16;4993610;28;20240;-81
2023/01/10 04:21:58;;;;;;;;;;;3.10;88.00;;;;;;4993262;28;19944;-81
2023/01/10 04:24:26;;;;;;;;;;;3.10;88.00;;;-151.14;100.00;62537.16;4993055;28;20236;-82
2023/01/10 04:26:55;;;;;;;;;;;3.10;88.00;;;1.77;100.00;62537.16;4993159;28;19922;-82
2023/01/10 04:29:23;;;;;;;;;;;3.10;88.00;;;-151.14;100.00;62537.16;4977259;28;19928;-82
2023/01/10 04:31:51;;;;;;;;;;;3.10;88.00;;;1.77;100.00;62537.16;4993539;28;19922;-81
2023/01/10 04:34:20;;;;;;;;;;;3.10;88.00;;;-151.14;100.00;62537.16;4993773;28;19926;-81
2023/01/10 04:36:48;;;;;;;;;;;3.10;88.10;;;18.09;100.00;62537.16;4976748;28;19922;-82
2023/01/10 04:39:16;;;;;;;;;;;3.10;88.00;;;-151.14;100.00;62537.16;5009286;28;20209;-82
2023/01/10 04:41:44;;;;;;;;;;;3.10;88.00;;;-151.14;100.00;62537.16;4977037;28;19922;-81
2023/01/10 04:44:13;;;;;;;;;;;3.10;88.00;;;-151.14;100.00;62537.16;5009098;28;20209;-81
2023/01/10 04:46:41;;;;;;;;;;;3.10;88.00;;;-151.14;100.00;62537.16;4976859;28;19928;-82
2023/01/10 04:49:09;;;;;;;;;;;3.10;88.00;;;-151.14;100.00;62537.16;5009512;28;19922;-81
2023/01/10 04:51:37;;;;;;;;;;;3.10;88.10;;;-151.14;100.00;62537.16;4976831;28;19926;-81
2023/01/10 04:54:05;;;;;;;;;;;3.10;88.00;;;-151.14;100.00;62537.16;4992436;28;19921;-82
2023/01/10 04:56:33;;;;;;;;;;;3.10;88.10;;;-151.14;100.00;62537.16;4992920;28;19922;-82
2023/01/10 04:59:01;;;;;;;;;;;3.10;88.00;;;-151.14;100.00;62537.16;4992902;28;20116;-82
2023/01/10 05:01:31;;;;;;;;;;;3.10;88.10;;;-151.14;100.00;62537.16;4976773;28;19922;-82
2023/01/10 05:03:59;;;;;;;;;;;3.10;88.00;;;1.76;100.00;62537.16;4992403;28;19921;-82
2023/01/10 05:06:27;;;;;;;;;;;3.10;88.00;;;1.77;100.00;62537.16;4976566;28;19928;-81
2023/01/10 05:08:55;;;;;;;;;;;3.10;88.10;;;1.75;100.00;62537.16;5052194;23;19921;-91
2023/01/10 05:11:23;;;;;;;;;;;3.10;88.10;;;-151.14;100.00;62537.16;5015759;28;19921;-90
2023/01/10 05:13:51;;;;;;;;;;;3.10;88.10;;;-151.14;100.00;62537.16;5015315;28;19921;-90
2023/01/10 05:16:19;;;;;;;;;;;3.10;88.00;;;-151.14;100.00;62537.16;5015720;28;19921;-90
2023/01/10 05:18:49;;;;;;;;;;;3.10;88.00;;;18.09;100.00;62537.16;4999233;28;19922;-90
2023/01/10 05:21:17;;;;;;;;;;;3.10;88.10;;;-151.14;100.00;62537.16;4996332;28;19922;-91
2023/01/10 05:23:45;;;;;;;;;;;3.10;88.00;;;1.76;100.00;62537.16;4995542;28;20217;-91
2023/01/10 05:26:18;;;;;;;;;;;3.10;88.00;;;1.75;100.00;62537.16;5012194;28;19943;-91
2023/01/10 05:28:46;;;;;;;;;;;3.10;88.00;;;-151.14;100.00;62537.16;4996088;28;19926;-90
2023/01/10 05:31:15;;;;;;;;;;;3.10;88.00;;;-151.14;100.00;62537.16;4995919;28;19921;-90
2023/01/10 05:33:44;;;;;;;;;;;3.10;88.00;;;-151.14;100.00;62537.16;4995408;28;19925;-91
2023/01/10 05:36:14;;;;;;;;;;;3.10;88.00;;;1.75;100.00;62537.16;5012268;28;19922;-91
2023/01/10 05:38:42;;;;;;;;;;;3.10;88.00;;;-151.14;100.00;62537.16;5012319;28;20120;-91
2023/01/10 05:41:10;;;;;;;;;;;3.10;88.00;;;-151.14;100.00;62537.16;5012315;28;19922;-90
2023/01/10 05:43:38;;;;;;;;;;;3.10;88.00;;;1.77;100.00;62537.16;4995282;28;19922;-90
2023/01/10 05:46:06;;;;;;;;;;;3.10;88.00;;;-151.14;100.00;62537.16;5011902;28;19922;-91
2023/01/10 05:48:33;;;;;;;;;;;3.10;88.00;;;1.75;100.00;62537.16;4995729;28;19922;-91
2023/01/10 05:51:02;;;;;;;;;;;3.10;88.00;;;-151.14;100.00;62537.16;4995703;28;19922;-91
2023/01/10 05:53:31;;;;;;;;;;;3.10;88.00;;;-151.14;100.00;62537.16;4995229;28;19922;-90
2023/01/10 05:56:00;;;;;;;;;;;3.10;88.10;;;1.74;100.00;62537.16;5011857;28;19925;-91
2023/01/10 05:58:28;;;;;;;;;;;3.10;88.00;;;-151.14;100.00;62537.16;4995619;28;19922;-90
2023/01/10 06:00:56;;;;;;;;;;;3.10;88.10;;;1.75;100.00;62537.16;4995446;28;19928;-91
2023/01/10 06:03:25;;;;;;;;;;;3.10;88.00;;;-151.14;100.00;62537.16;5011221;28;19921;-90
2023/01/10 06:05:53;;;;;;;;;;;3.10;88.00;;;-151.14;100.00;62537.16;4995390;28;19927;-91
2023/01/10 06:08:21;;;;;;;;;;;3.10;88.00;;;-151.14;100.00;62537.16;5011550;28;19924;-91
2023/01/10 06:10:51;;;;;;;;;;;3.10;88.00;;;-151.14;100.00;62537.16;5011537;28;19928;-90
2023/01/10 06:13:19;;;;;;;;;;;3.10;88.10;;;-151.14;100.00;62537.16;4994863;28;19921;-90
2023/01/10 06:15:47;;;;;;;;;;;3.10;88.10;;;1.75;100.00;62537.16;4995077;28;19922;-90
2023/01/10 06:18:15;;;;;;;;;;;3.10;88.10;;;-151.14;100.00;62537.16;5011604;28;20120;-91
2023/01/10 06:20:43;;;;;;;;;;;3.10;88.10;;;-151.14;100.00;62537.16;5011536;28;19922;-90
2023/01/10 06:23:11;;;;;;;;;;;3.10;88.10;;;-151.14;100.00;62537.16;4994592;28;20144;-91
2023/01/10 06:25:40;;;;;;;;;;;3.10;88.10;;;-151.14;100.00;62537.16;5011475;28;19921;-90
2023/01/10 06:28:10;;;;;;;;;;;3.10;88.00;;;-151.14;100.00;62537.16;4995018;28;20209;-91
2023/01/10 06:30:37;;;;;;;;;;;3.10;88.00;;;;;;4995048;28;19928;-90
2023/01/10 06:33:06;;;;;;;;;;;3.10;88.00;;;-151.14;100.00;62537.16;4994640;28;20209;-91
2023/01/10 06:35:34;;;;;;;;;;;3.10;88.00;;;1.75;100.00;62537.16;4994790;28;19936;-91
2023/01/10 06:38:02;;;;;;;;;;;3.10;88.00;;;-151.14;100.00;62537.16;4994806;28;19922;-91
2023/01/10 06:40:29;;;;;;;;;;;3.10;88.00;;;-151.14;100.00;62537.16;4994781;28;19922;-90
2023/01/10 06:42:57;;;;;;;;;;;3.10;88.00;;;-151.14;100.00;62537.16;4994399;28;19921;-90
2023/01/10 06:45:27;;;;;;;;;;;3.10;88.00;;;1.75;100.00;62537.16;4994836;28;19921;-90
2023/01/10 06:47:55;;;;;;;;;;;3.10;88.00;;;-151.14;100.00;62537.16;4994722;28;19928;-90
2023/01/10 06:50:23;;;;;;;;;;;3.10;88.00;;;-151.14;100.00;62537.16;4995171;28;20111;-91
2023/01/10 06:52:56;;;;;;;;;;;3.10;88.80;;;1.76;100.00;62537.16;5010677;28;19936;-90
2023/01/10 06:55:24;;;;;;;;;;;3.10;87.90;;;-151.14;100.00;62537.16;4994610;28;19928;-90
2023/01/10 06:57:55;;;;;;;;;;;3.10;87.80;;;-151.14;100.00;62537.16;4994642;28;19921;-91
2023/01/10 07:00:24;;;;;;;;;;;3.10;87.90;;;-151.14;100.00;62537.16;5010468;28;19922;-90
2023/01/10 07:02:55;;;;;;;;;;;3.10;87.90;;;-151.14;100.00;62537.16;5010398;28;19922;-90
2023/01/10 07:05:23;;;;;;;;;;;3.10;87.80;;;1.80;100.00;62537.16;4994559;28;19927;-90
2023/01/10 07:07:50;;;;;;;;;;;3.20;87.80;;;-151.14;100.00;62537.16;5010773;28;20116;-90
2023/01/10 07:10:19;;;;;;;;;;;3.20;87.70;;;18.09;100.00;62537.16;4994478;28;19928;-90
2023/01/10 07:12:47;;;;;;;;;;;3.20;87.70;;;-151.14;100.00;62537.16;5010336;28;19922;-90
2023/01/10 07:15:15;;;;;;;;;;;3.20;87.60;;;18.09;100.00;62537.16;4994671;28;19922;-90
2023/01/10 07:17:43;;;;;;;;;;;3.20;87.60;;;1.88;100.00;62537.16;5011680;28;20230;-89
2023/01/10 07:20:12;;;;;;;;;;;3.20;87.50;;;-151.14;100.00;62537.16;4994398;28;19928;-90
2023/01/10 07:22:40;;;;;;;;;;;3.20;87.40;;;-151.14;100.00;62537.16;5010196;28;20124;-90
2023/01/10 07:25:08;;;;;;;;;;;3.30;87.50;;;-151.14;100.00;62537.16;4994418;28;19930;-89
2023/01/10 07:27:37;;;;;;;;;;;3.30;87.40;;;-151.14;100.00;62537.16;5010509;28;19921;-90
2023/01/10 07:30:07;;;;;;;;;;;3.30;87.20;;;-151.14;100.00;62537.16;4994352;28;19927;-90
2023/01/10 07:32:34;;;;;;;;;;;3.20;87.10;;;-151.14;100.00;62537.16;4994005;28;19922;-90
2023/01/10 07:35:02;;;;;;;;;;;3.30;87.20;;;-151.14;100.00;62537.16;4994083;28;19921;-90
2023/01/10 07:37:32;;;;;;;;;;;3.30;87.10;;;-151.14;100.00;62537.16;5010453;28;19928;-90
2023/01/10 07:40:00;;;;;;;;;;;3.30;87.80;;;-151.14;100.00;62537.16;4994302;28;19928;-90
2023/01/10 07:42:28;;;;;;;;;;;3.30;86.90;;;-151.14;100.00;62537.16;4994183;28;19928;-89
2023/01/10 07:44:56;;;;;;;;;;;3.30;86.90;;;-151.14;100.00;62537.16;4993697;28;19921;-90
2023/01/10 07:47:24;;;;;;;;;;;3.30;86.80;;;-151.14;100.00;62537.16;5010303;28;19921;-90
2023/01/10 07:49:51;;;;;;;;;;;3.30;86.70;;;-151.14;100.00;62537.16;4993973;28;20120;-90
2023/01/10 07:52:19;;;;;;;;;;;3.30;86.70;;;-151.14;100.00;62537.16;4994052;28;20120;-90
2023/01/10 07:54:49;;;;;;;;;;;3.30;86.70;;;-151.14;100.00;62537.16;5025828;28;20225;-90
2023/01/10 07:57:17;;;;;;;;;;;3.30;86.70;;;-151.14;100.00;62537.16;5010315;28;20205;-90
2023/01/10 07:59:45;;;;;;;;;;;3.30;86.70;;;1.95;100.00;62537.16;5010234;28;19922;-91
2023/01/10 08:02:13;;;;;;;;;;;3.30;86.70;;;-151.14;100.00;62537.16;4993882;28;20105;-91
2023/01/10 08:04:41;;;;;;;;;;;3.30;86.70;;;-151.14;100.00;62537.16;4993403;28;19921;-90
2023/01/10 08:07:08;;;;;;;;;;;3.30;86.70;;;-151.14;100.00;62537.16;5009890;28;19930;-90
2023/01/10 08:09:36;;;;;;;;;;;3.30;86.70;;;1.95;100.00;62537.16;4993777;28;19921;-90
2023/01/10 08:12:06;;;;;;;;;;;3.30;86.60;;;-151.14;100.00;62537.16;4993571;28;19921;-90
2023/01/10 08:14:34;;;;;;;;;;;3.30;86.60;;;1.98;100.00;62537.16;4996509;28;19921;-90
2023/01/10 08:17:02;;;;;;;;;;;3.30;86.50;;;-151.14;100.00;62537.16;5013317;28;19928;-90
2023/01/10 08:19:30;;;;;;;;;;;3.30;86.50;;;-151.14;100.00;62537.16;4996964;28;19921;-91
2023/01/10 08:21:59;;;;;;;;;;;3.40;86.50;;;-151.14;100.00;62537.16;5013367;28;20116;-91
2023/01/10 08:24:27;;;;;;;;;;;3.40;86.40;;;-151.14;100.00;62537.16;4996505;28;19921;-90
2023/01/10 08:26:58;;;;;;;;;;;3.40;86.30;;;2.02;100.00;62537.16;5013036;28;20235;-91
2023/01/10 08:29:27;;;;;;;;;;;3.40;86.30;;;-151.14;100.00;62537.16;5013101;28;19928;-89
2023/01/10 08:31:55;;;;;;;;;;;3.40;86.20;;;2.05;100.00;62537.16;4993379;28;19922;-90
2023/01/10 08:34:23;;;;;;;;;;;3.40;86.20;;;-151.14;100.00;62537.16;4976846;28;19922;-91
2023/01/10 08:36:51;;;;;;;;;;;3.40;86.10;;;-151.14;100.00;62537.16;4977345;28;19928;-90
2023/01/10 08:39:21;;;;;;;;;;;3.50;86.10;;;-151.14;100.00;62537.16;4977192;28;19928;-90
2023/01/10 08:41:49;;;;;;;;;;;3.50;86.00;;;-151.14;100.00;62537.16;4993442;28;19922;-90
2023/01/10 08:44:17;;;;;;;;;;;3.50;85.90;;;2.08;100.00;62537.16;4992991;28;19922;-90
2023/01/10 08:46:46;;;;;;;;;;;3.50;85.80;;;-151.14;100.00;62537.16;4993391;28;19921;-90
2023/01/10 08:49:14;;;;;;;;;;;3.50;85.80;;;-151.14;100.00;62537.16;4993459;28;20235;-89
2023/01/10 08:51:43;;;;;;;;;;;3.50;85.70;;;-151.14;100.00;62537.16;4977256;28;19955;-91
2023/01/10 08:54:11;;;;;;;;;;;3.50;85.70;;;-151.14;100.00;62537.16;4992771;28;20212;-91
2023/01/10 08:56:40;;;;;;;;;;;3.50;85.70;;;-151.14;100.00;62537.16;4977230;28;19922;-91
2023/01/10 08:59:08;;;;;;;;;;;3.40;85.70;;;-151.14;100.00;62537.16;4977054;28;19925;-91
2023/01/10 09:01:35;;;;;;;;;;;3.40;85.90;;;-151.14;100.00;62537.16;4976840;28;19928;-91
2023/01/10 09:04:05;;;;;;;;;;;3.40;85.80;;;-151.14;100.00;62537.16;4992758;28;19921;-90
2023/01/10 09:06:33;;;;;;;;;;;3.40;85.80;;;2.05;100.00;62537.16;4977086;28;19932;-91
2023/01/10 09:09:01;;;;;;;;;;;3.40;85.80;;;-151.14;100.00;62537.16;4992736;28;19922;-90
2023/01/10 09:11:29;;;;;;;;;;;3.40;85.90;;;-151.14;100.00;62537.16;4992997;28;19929;-90
2023/01/10 09:13:57;;;;;;;;;;;3.40;85.90;;;-151.14;100.00;62537.16;4976063;28;19922;-90
2023/01/10 09:16:25;;;;;;;;;;;3.40;86.00;;;2.01;100.00;62537.16;4992913;28;19922;-91
2023/01/10 09:18:54;;;;;;;;;;;3.40;86.00;;;-151.14;100.00;62537.16;5008976;28;19928;-90
2023/01/10 09:21:23;;;;;;;;;;;3.40;86.00;;;-151.14;100.00;62537.16;4976754;28;19922;-90
2023/01/10 09:23:51;;;;;;;;;;;3.40;86.00;;;1.98;100.00;62537.16;4991963;28;20098;-90
2023/01/10 09:26:19;;;;;;;;;;;3.30;86.00;;;-151.14;100.00;62537.16;4976664;28;20231;-90
2023/01/10 09:28:48;;;;;;;;;;;3.30;86.20;;;-151.14;100.00;62537.16;4976255;28;19922;-88
2023/01/10 09:31:15;;;;;;;;;;;3.30;86.30;;;-151.14;100.00;62537.16;4978439;28;19921;-90
2023/01/10 09:33:45;;;;;;;;;;;3.30;86.40;;;-151.14;100.00;62537.16;5011649;28;19922;-89
2023/01/10 09:36:14;;;;;;;;;;;3.30;86.40;;;18.09;100.00;62537.16;5013174;28;19921;-89
2023/01/10 09:38:43;;;;;;;;;;;3.30;86.40;;;-151.14;100.00;62537.16;4995571;28;19922;-89
2023/01/10 09:41:21;;;;;;;;;;;3.30;86.30;;;-151.14;100.00;62537.16;5012038;28;19921;-90
2023/01/10 09:43:55;;;;;;;;;;;3.30;86.40;;;-151.14;100.00;62537.16;5011382;28;20212;-90
2023/01/10 09:46:26;;;;;;;;;;;3.30;86.30;;;1.92;100.00;62537.16;4995764;28;20213;-90
2023/01/10 09:48:56;;;;;;;;;;;3.30;86.40;;;1.92;100.00;62537.16;4995414;28;19928;-90
2023/01/10 09:51:30;;;;;;;;;;;3.30;86.50;;;-151.14;100.00;62537.16;4995411;28;19930;-89
2023/01/10 09:54:00;;;;;;;;;;;3.30;86.40;;;1.91;100.00;62537.16;4995054;28;19932;-89
2023/01/10 09:56:29;;;;;;;;;;;3.30;87.30;;;-151.14;100.00;62537.16;4995497;28;19922;-90
2023/01/10 09:58:57;;;;;;;;;;;3.30;86.50;;;-151.14;100.00;62537.16;4995319;28;19928;-89
2023/01/10 10:01:26;;;;;;;;;;;3.30;86.50;;;-151.14;100.00;62537.16;4995394;28;20226;-90
2023/01/10 10:03:57;;;;;;;;;;;3.30;86.60;;;-151.14;100.00;62537.16;4994837;28;19921;-89
2023/01/10 10:06:25;;;;;;;;;;;3.30;86.60;;;-151.14;100.00;62537.16;4995449;28;19921;-89
2023/01/10 10:08:53;;;;;;;;;;;3.30;86.60;;;-151.14;100.00;62537.16;4995126;28;19922;-90
2023/01/10 10:11:34;;;;;;;;;;;3.30;86.70;;;-151.14;100.00;62537.16;4995288;28;20217;-91
2023/01/10 10:14:04;;;;;;;;;;;3.20;86.50;;;-151.14;100.00;62537.16;4995133;28;19927;-88
2023/01/10 10:16:37;;;;;;;;;;;3.30;86.70;;;-151.14;100.00;62537.16;4995266;28;20117;-90
2023/01/10 10:19:09;;;;;;;;;;;3.20;86.50;;;1.87;100.00;62537.16;4995060;28;20213;-90
2023/01/10 10:21:40;;;;;;;;;;;3.20;86.60;;;-151.14;100.00;62537.16;4995425;28;20208;-89
2023/01/10 10:24:26;;;;;;;;;;;3.20;86.60;;;-151.14;100.00;62537.16;5010990;28;19936;-89
2023/01/10 10:26:58;;;;;;;;;;;3.20;86.70;;;-151.14;100.00;62537.16;4994226;28;19922;-91
2023/01/10 10:30:00;;;;;;;;;;;3.20;86.70;;;-151.14;100.00;62537.16;4991674;28;19928;-90
2023/01/10 10:32:35;;;;;;;;;;;3.20;86.70;;;18.10;100.00;62537.16;4991899;28;20270;-90
2023/01/10 10:35:04;;;;;;;;;;;3.20;86.70;;;1.90;100.00;62537.16;4974935;28;19989;-89
2023/01/10 10:37:33;;;;;;;;;;;3.20;86.70;;;-151.14;100.00;62537.16;4978577;28;19921;-90
2023/01/10 10:40:02;;;;;;;;;;;3.20;86.80;;;1.87;100.00;62537.16;5027385;28;20227;-90
2023/01/10 10:42:34;;;;;;;;;;;3.20;86.80;;;-151.14;100.00;62537.16;4994707;28;19921;-90
2023/01/10 10:45:03;;;;;;;;;;;3.20;86.80;;;1.85;100.00;62537.16;4994771;28;19927;-90
2023/01/10 10:47:34;;;;;;;;;;;3.20;86.70;;;1.86;100.00;62537.16;4995033;28;19928;-90
2023/01/10 10:50:07;;;;;;;;;;;3.20;86.70;;;-151.14;100.00;62537.16;5010940;28;19921;-90
2023/01/10 10:52:35;;;;;;;;;;;3.20;86.80;;;-151.14;100.00;62537.16;4994569;28;19940;-89
2023/01/10 10:55:04;;;;;;;;;;;3.20;86.70;;;-151.14;100.00;62537.16;4994727;28;20120;-90
2023/01/10 10:57:34;;;;;;;;;;;3.20;86.80;;;-151.14;100.00;62537.16;5027399;28;19922;-90
2023/01/10 11:00:02;;;;;;;;;;;3.20;86.80;;;1.90;100.00;62537.16;5010975;28;20200;-90
2023/01/10 11:02:32;;;;;;;;;;;3.20;86.80;;;-151.14;100.00;62537.16;4994716;28;20098;-90
2023/01/10 11:05:03;;;;;;;;;;;3.20;86.80;;;-151.14;100.00;62537.16;4994498;28;20248;-90
2023/01/10 11:07:33;;;;;;;;;;;3.30;86.80;;;-151.14;100.00;62537.16;5011182;28;19928;-90
2023/01/10 11:10:17;;;;;;;;;;;3.30;86.80;;;1.91;100.00;62537.16;4994690;28;20190;-91
2023/01/10 11:12:49;;;;;;;;;;;3.30;86.80;;;-151.14;100.00;62537.16;4994932;28;19921;-90
2023/01/10 11:15:39;;;;;;;;;;;3.30;86.70;;;-151.14;100.00;62537.16;5010899;28;19922;-91
2023/01/10 11:18:11;;;;;;;;;;;3.30;86.70;;;-151.14;100.00;62537.16;4994756;28;19921;-90
2023/01/10 11:20:47;;;;;;;;;;;3.30;86.70;;;-151.14;100.00;62537.16;5011014;28;19927;-90
2023/01/10 11:23:22;;;;;;;;;;;3.30;86.60;;;18.09;100.00;62537.16;4994640;28;20205;-90
2023/01/10 11:25:50;;;;;;;;;;;3.40;86.50;;;-151.14;100.00;62537.16;4994745;28;19922;-90
2023/01/10 11:28:21;;;;;;;;;;;3.40;86.40;;;-151.14;100.00;62537.16;4994502;28;20124;-90